KSAA/SAA METAR and TAF weather

Enter ICAO airport designator
Station Type Date Time Source
KSAA METAR 2021/03/06 04:15 UTC NOAA

KSAA 060415Z AUTO 18007KT 10SM CLR M01/M05 A3029 RMK AO2


Station Type Date Time Source
KSAA Decoded METAR 2021/03/06 04:15 UTC NOAA

Station name not available
Mar 05, 2021 - 11:15 PM EST / 2021.03.06 0415 UTC
Wind: from the S (180 degrees) at 8 MPH (7 KT):0
Visibility: 10 mile(s):0
Sky conditions: clear
Temperature: 30 F (-1 C)
Windchill: 23 F (-5 C):1
Dew Point: 23 F (-5 C)
Relative Humidity: 74%
Pressure (altimeter): 30.29 in. Hg (1025 hPa)
ob: KSAA 060415Z AUTO 18007KT 10SM CLR M01/M05 A3029 RMK AO2
cycle: 4

Station Type Date Time Source
KSAA TAF UTC NOAA

Error!

Example: see airport list